Weather History for KAUH - November, 2012

Change the Weather History Date:

Sunday, November 4, 2012

  Actual Average Record
Temperature  
Mean Temperature 47 °F -  
Max Temperature 57 °F 54 °F 79 °F (1978)
Min Temperature 37 °F 31 °F -2 °F (1991)
Degree Days  
Heating Degree Days 18    
Moisture  
Dew Point 34 °F    
Average Humidity 64    
Maximum Humidity 81    
Minimum Humidity 41    
Precipitation  
Precipitation 0.00 in - - ()
Sea Level Pressure  
Sea Level Pressure 30.08 in    
Wind  
Wind Speed 7 mph (WSW)    
Max Wind Speed 14 mph    
Max Gust Speed -    
Visibility 10 miles    
Events Rain    
Averages and records for this station are not official NWS values.
T = Trace of Precipitation, MM = Missing Value Source: NWS Daily Summary

Daily Weather History Graph

Daily Weather History Graph

Search for Another Location

Airport or City:

Trip Planner

Search our weather history database for the weather conditions in past years. The results will help you decide how hot, cold, wet, or windy it might be!

Date:

Astronomy

Nov. 04, 2012 Rise Set
Actual Time 7:06 AM CST 5:23 PM CST
Civil Twilight 6:38 AM CST 5:52 PM CST
Nautical Twilight 6:05 AM CST 6:25 PM CST
Astronomical Twilight 5:33 AM CST 6:57 PM CST
Moon 10:02 PM CST (11/4) 11:51 AM CST (11/4)
Length of Visible Light 11h 14m
Length of Day
10h 17m
Waning Gibbous, 72% of the Moon is Illuminated
Nov 4
Waning Gibbous
Nov 6
Last Quarter
Nov 13
New
Nov 20
First Quarter
Nov 28
Full

Hourly Weather History & Observations

Time (CST) Temp. Windchill Dew Point Humidity Pressure Visibility Wind Dir Wind Speed Gust Speed Precip Events Conditions
12:15 AM 44.8 °F 41.6 °F 33.4 °F 64% 30.16 in 10.0 mi SSE 5.8 mph - N/A   Overcast
12:35 AM 45.1 °F 42.8 °F 33.3 °F 63% 30.16 in 10.0 mi South 4.6 mph - N/A   Overcast
12:55 AM 45.5 °F 41.3 °F 33.3 °F 62% 30.17 in 10.0 mi South 8.1 mph - N/A   Overcast
1:15 AM 44.8 °F 42.4 °F 33.3 °F 64% 30.16 in 10.0 mi South 4.6 mph - N/A   Overcast
1:35 AM 44.2 °F 41.0 °F 32.9 °F 64% 30.16 in 10.0 mi South 5.8 mph - N/A   Mostly Cloudy
1:55 AM 43.0 °F 40.3 °F 32.9 °F 68% 30.16 in 10.0 mi South 4.6 mph - N/A   Mostly Cloudy
1:15 AM 42.8 °F 40.1 °F 32.9 °F 68% 30.15 in 10.0 mi South 4.6 mph - N/A   Mostly Cloudy
1:35 AM 43.7 °F 41.1 °F 32.5 °F 65% 30.15 in 10.0 mi South 4.6 mph - N/A   Mostly Cloudy
1:55 AM 42.1 °F 39.2 °F 32.4 °F 68% 30.15 in 10.0 mi South 4.6 mph - N/A   Mostly Cloudy
2:15 AM 41.0 °F 38.0 °F 32.0 °F 70% 30.15 in 10.0 mi SSE 4.6 mph - N/A   Scattered Clouds
2:35 AM 40.6 °F 36.7 °F 32.0 °F 71% 30.15 in 10.0 mi South 5.8 mph - N/A   Scattered Clouds
2:55 AM 40.5 °F 36.5 °F 32.5 °F 73% 30.13 in 10.0 mi South 5.8 mph - N/A   Mostly Cloudy
3:15 AM 42.1 °F 38.4 °F 33.1 °F 70% 30.13 in 10.0 mi South 5.8 mph - N/A   Mostly Cloudy
3:35 AM 42.8 °F 38.6 °F 33.3 °F 69% 30.12 in 10.0 mi South 6.9 mph - N/A   Scattered Clouds
3:55 AM 42.8 °F 38.0 °F 33.4 °F 70% 30.12 in 10.0 mi South 8.1 mph - N/A   Clear
4:15 AM 41.9 °F 37.5 °F 33.4 °F 72% 30.12 in 10.0 mi South 6.9 mph - N/A   Clear
4:35 AM 40.3 °F 36.3 °F 32.9 °F 75% 30.12 in 10.0 mi South 5.8 mph - N/A   Clear
4:55 AM 37.9 °F 33.5 °F 32.2 °F 80% 30.12 in 10.0 mi SSE 5.8 mph - N/A   Clear
5:15 AM 37.6 °F 33.1 °F 32.2 °F 81% 30.11 in 10.0 mi SSE 5.8 mph - N/A   Clear
5:35 AM 37.4 °F 32.1 °F 32.2 °F 81% 30.11 in 10.0 mi SSE 6.9 mph - N/A   Clear
5:55 AM 37.8 °F 32.5 °F 32.5 °F 81% 30.10 in 10.0 mi SSE 6.9 mph - N/A   Clear
6:15 AM 37.9 °F 32.7 °F 32.5 °F 81% 30.10 in 10.0 mi SSE 6.9 mph - N/A   Clear
6:35 AM 38.3 °F 32.5 °F 32.5 °F 80% 30.09 in 10.0 mi South 8.1 mph - N/A   Clear
6:55 AM 37.9 °F 31.5 °F 32.7 °F 81% 30.08 in 10.0 mi SSE 9.2 mph - N/A   Clear
7:15 AM 38.8 °F 31.2 °F 33.3 °F 80% 30.08 in 10.0 mi South 12.7 mph - N/A   Clear
7:35 AM 39.7 °F 32.3 °F 34.0 °F 80% 30.08 in 10.0 mi South 12.7 mph - N/A   Clear
7:55 AM 39.9 °F 35.8 °F 34.3 °F 80% 30.09 in 10.0 mi WSW 5.8 mph - N/A   Clear
8:15 AM 40.6 °F 35.4 °F 35.1 °F 80% 30.08 in 10.0 mi SW 8.1 mph - N/A   Clear
8:35 AM 41.7 °F 36.7 °F 35.6 °F 79% 30.08 in 10.0 mi SW 8.1 mph - N/A   Clear
8:55 AM 43.0 °F 36.8 °F 35.4 °F 75% 30.07 in 10.0 mi SSW 11.5 mph - N/A   Clear
9:15 AM 44.6 °F 39.2 °F 35.6 °F 71% 30.07 in 10.0 mi SW 10.4 mph - N/A   Clear
9:35 AM 46.2 °F 41.7 °F 35.8 °F 67% 30.07 in 10.0 mi WSW 9.2 mph - N/A   Clear
9:55 AM 47.7 °F - 34.7 °F 61% 30.06 in 10.0 mi WSW 13.8 mph - N/A   Clear
10:15 AM 48.9 °F - 34.3 °F 57% 30.06 in 10.0 mi SW 10.4 mph - N/A   Clear
10:35 AM 51.8 °F - 34.2 °F 51% 30.05 in 10.0 mi WSW 10.4 mph - N/A   Clear
10:55 AM 52.9 °F - 33.6 °F 48% 30.05 in 10.0 mi WSW 8.1 mph - N/A   Clear
11:15 AM 53.1 °F - 32.9 °F 46% 30.05 in 10.0 mi WSW 6.9 mph - N/A   Clear
11:35 AM 54.9 °F - 32.9 °F 43% 30.04 in 10.0 mi West 8.1 mph - N/A   Clear
11:55 AM 55.0 °F - 32.7 °F 43% 30.03 in 10.0 mi West 9.2 mph - N/A   Clear
12:15 PM 55.9 °F - 33.4 °F 43% 30.02 in 10.0 mi West 9.2 mph - N/A   Clear
12:35 PM 56.3 °F - 33.8 °F 43% 30.02 in 10.0 mi WNW 10.4 mph - N/A   Clear
12:55 PM 56.3 °F - 33.3 °F 42% 30.02 in 10.0 mi NW 9.2 mph - N/A   Clear
1:15 PM 57.0 °F - 33.3 °F 41% 30.02 in 10.0 mi NW 6.9 mph - N/A   Scattered Clouds
1:35 PM 56.5 °F - 33.4 °F 42% 30.01 in 10.0 mi NW 8.1 mph - N/A   Mostly Cloudy
1:55 PM 56.3 °F - 33.4 °F 42% 30.01 in 10.0 mi NW 5.8 mph - N/A   Overcast
2:15 PM 55.9 °F - 33.6 °F 43% 30.00 in 10.0 mi NW 4.6 mph - N/A   Overcast
2:35 PM 55.4 °F - 33.8 °F 44% 30.00 in 10.0 mi North 8.1 mph - N/A   Overcast
2:55 PM 54.5 °F - 34.0 °F 46% 30.01 in 10.0 mi NNW 6.9 mph - N/A   Overcast
3:15 PM 54.3 °F - 33.8 °F 46% 30.01 in 10.0 mi NNE 3.5 mph - N/A   Overcast
3:35 PM 54.1 °F - 34.3 °F 47% 30.03 in 10.0 mi NW 5.8 mph - N/A   Overcast
3:55 PM 54.0 °F - 34.7 °F 48% 30.03 in 10.0 mi North 5.8 mph - N/A   Overcast
4:15 PM 53.6 °F - 35.2 °F 50% 30.03 in 10.0 mi North 6.9 mph - N/A   Overcast
4:35 PM 52.7 °F - 34.9 °F 51% 30.01 in 10.0 mi NE 10.4 mph - N/A   Overcast
4:55 PM 51.8 °F - 35.1 °F 53% 30.05 in 10.0 mi North 11.5 mph - N/A   Overcast
5:15 PM 51.1 °F - 35.4 °F 55% 30.05 in 10.0 mi North 8.1 mph - N/A   Overcast
5:35 PM 50.7 °F - 35.6 °F 56% 30.06 in 10.0 mi North 9.2 mph - N/A   Overcast
5:55 PM 49.6 °F - 37.2 °F 62% 30.06 in 10.0 mi North 6.9 mph - N/A Rain Light Rain
6:15 PM 49.1 °F - 37.8 °F 65% 30.06 in 10.0 mi NNW 6.9 mph - N/A   Overcast
6:35 PM 48.4 °F - 38.3 °F 68% 30.06 in 10.0 mi NNW 3.5 mph - N/A Rain Light Rain
6:55 PM 48.2 °F - 38.3 °F 69% 30.05 in 10.0 mi Calm Calm - N/A   Overcast
7:15 PM 46.9 °F - 38.3 °F 72% 30.07 in 10.0 mi NW 4.6 mph - N/A   Overcast
7:35 PM 47.3 °F - 37.8 °F 69% 30.07 in 10.0 mi NNW 3.5 mph - N/A   Overcast
7:55 PM 47.3 °F - 37.4 °F 68% 30.07 in 10.0 mi NW 6.9 mph - N/A   Overcast
8:15 PM 46.9 °F - 37.0 °F 68% 30.08 in 10.0 mi NW 8.1 mph - N/A   Overcast
8:35 PM 46.4 °F 42.9 °F 36.7 °F 69% 30.08 in 10.0 mi NW 6.9 mph - N/A   Overcast
8:55 PM 45.3 °F 42.3 °F 36.5 °F 71% 30.08 in 10.0 mi NW 5.8 mph - N/A   Overcast
9:15 PM 42.4 °F 38.8 °F 35.2 °F 76% 30.08 in 10.0 mi WNW 5.8 mph - N/A   Mostly Cloudy
9:35 PM 40.1 °F 35.3 °F 34.0 °F 79% 30.08 in 10.0 mi NW 6.9 mph - N/A   Scattered Clouds
9:55 PM 40.8 °F 36.2 °F 34.9 °F 79% 30.08 in 10.0 mi NW 6.9 mph - N/A   Mostly Cloudy
10:15 PM 42.3 °F 37.9 °F 35.8 °F 78% 30.08 in 10.0 mi NW 6.9 mph - N/A   Overcast
10:35 PM 43.7 °F 39.7 °F 36.5 °F 76% 30.08 in 10.0 mi NW 6.9 mph - N/A   Overcast
10:55 PM 44.6 °F 40.2 °F 36.5 °F 73% 30.08 in 10.0 mi NW 8.1 mph - N/A   Overcast